createdAt,value
2018-10-11T00:00:30.516Z,16.70
2018-10-11T00:02:59.176Z,17.67
2018-10-11T00:05:27.664Z,18.20
2018-10-11T00:07:56.549Z,16.50
2018-10-11T00:10:25.277Z,18.37
2018-10-11T00:12:53.719Z,15.87
2018-10-11T00:15:22.919Z,16.70
2018-10-11T00:17:56.045Z,19.77
2018-10-11T00:20:24.910Z,16.83
2018-10-11T00:22:53.877Z,17.00
2018-10-11T00:25:22.537Z,19.37
2018-10-11T00:27:51.303Z,17.93
2018-10-11T00:30:22.162Z,16.20
2018-10-11T00:32:50.862Z,16.73
2018-10-11T00:35:19.329Z,17.80
2018-10-11T00:37:48.214Z,16.90
2018-10-11T00:40:16.950Z,17.83
2018-10-11T00:42:45.644Z,18.50
2018-10-11T00:45:14.300Z,17.80
2018-10-11T00:47:42.943Z,17.57
2018-10-11T00:50:11.555Z,18.60
2018-10-11T00:52:40.206Z,18.30
2018-10-11T00:55:09.810Z,19.03
2018-10-11T00:57:38.935Z,19.00
2018-10-11T01:00:08.369Z,17.53
2018-10-11T01:02:37.322Z,17.50
2018-10-11T01:05:06.635Z,18.13
2018-10-11T01:07:35.325Z,18.10
2018-10-11T01:10:04.460Z,18.20
2018-10-11T01:12:33.836Z,17.30
2018-10-11T01:15:02.931Z,20.10
2018-10-11T01:17:32.020Z,18.70
2018-10-11T01:20:01.793Z,19.80
2018-10-11T01:22:30.829Z,18.57
2018-10-11T01:25:00.090Z,18.23
2018-10-11T01:27:28.616Z,19.30
2018-10-11T01:29:58.030Z,18.70
2018-10-11T01:32:26.791Z,18.77
2018-10-11T01:34:55.390Z,18.30
2018-10-11T01:37:25.747Z,19.47
2018-10-11T01:39:54.507Z,19.60
2018-10-11T01:42:23.136Z,18.47
2018-10-11T01:44:51.651Z,20.00
2018-10-11T01:47:20.315Z,18.80
2018-10-11T01:49:49.025Z,19.53
2018-10-11T01:52:17.759Z,18.00
2018-10-11T01:54:46.511Z,18.50
2018-10-11T01:57:15.152Z,19.87
2018-10-11T01:59:43.824Z,21.20
2018-10-11T02:02:12.494Z,19.73
2018-10-11T02:04:41.182Z,19.47
2018-10-11T02:07:09.844Z,19.87
2018-10-11T02:09:39.048Z,20.13
2018-10-11T02:12:07.888Z,21.57
2018-10-11T02:14:36.519Z,18.90
2018-10-11T02:17:10.273Z,20.33
2018-10-11T02:19:38.925Z,20.97
2018-10-11T02:22:08.453Z,19.30
2018-10-11T02:24:37.054Z,18.87
2018-10-11T02:27:05.588Z,19.63
2018-10-11T02:29:34.199Z,20.97
2018-10-11T02:32:02.856Z,19.13
2018-10-11T02:34:31.412Z,19.13
2018-10-11T02:37:00.779Z,19.77
2018-10-11T02:39:29.233Z,20.13
2018-10-11T02:41:57.636Z,19.40
2018-10-11T02:44:26.104Z,20.43
2018-10-11T02:46:54.549Z,20.73
2018-10-11T02:49:22.911Z,20.47
2018-10-11T02:51:51.554Z,20.00
2018-10-11T02:54:19.926Z,19.83
2018-10-11T02:56:48.336Z,19.10
2018-10-11T02:59:30.907Z,19.83
2018-10-11T03:02:03.030Z,19.30
2018-10-11T03:04:32.335Z,20.43
2018-10-11T03:07:01.057Z,21.87
2018-10-11T03:09:30.923Z,21.40
2018-10-11T03:11:59.690Z,19.70
2018-10-11T03:14:28.300Z,19.77
2018-10-11T03:16:56.925Z,20.73
2018-10-11T03:19:25.995Z,19.50
2018-10-11T03:21:54.991Z,22.83
2018-10-11T03:24:24.619Z,20.30
2018-10-11T03:26:59.669Z,21.80
2018-10-11T03:29:33.329Z,21.10
2018-10-11T03:32:02.192Z,20.83
2018-10-11T03:34:30.780Z,19.27
2018-10-11T03:36:59.989Z,19.60
2018-10-11T03:39:29.239Z,20.73
2018-10-11T03:41:58.791Z,19.83
2018-10-11T03:44:28.013Z,21.80
2018-10-11T03:46:56.461Z,22.10
2018-10-11T03:49:26.385Z,21.20
2018-10-11T03:51:54.799Z,20.63
2018-10-11T03:54:23.281Z,20.67
2018-10-11T03:56:51.910Z,23.57
2018-10-11T03:59:20.306Z,21.47
2018-10-11T04:01:48.745Z,21.70
2018-10-11T04:04:17.286Z,20.40
2018-10-11T04:06:45.702Z,22.80
2018-10-11T04:09:14.071Z,22.00
2018-10-11T04:11:42.437Z,22.67
2018-10-11T04:14:10.964Z,21.67
2018-10-11T04:16:39.319Z,22.07
2018-10-11T04:19:07.994Z,22.03
2018-10-11T04:21:36.413Z,22.33
2018-10-11T04:24:04.844Z,21.30
2018-10-11T04:26:33.305Z,23.27
2018-10-11T04:29:01.846Z,24.40
2018-10-11T04:31:30.265Z,23.70
2018-10-11T04:33:58.659Z,22.93
2018-10-11T04:36:27.093Z,23.10
2018-10-11T04:38:55.505Z,23.20
2018-10-11T04:41:23.936Z,22.87
2018-10-11T04:43:52.385Z,22.00
2018-10-11T04:46:20.960Z,22.87
2018-10-11T04:48:49.411Z,21.70
2018-10-11T04:51:18.065Z,21.93
2018-10-11T04:53:50.772Z,21.10
2018-10-11T04:56:19.454Z,21.80
2018-10-11T04:58:47.925Z,23.30
2018-10-11T05:01:16.402Z,23.07
2018-10-11T05:03:44.786Z,22.63
2018-10-11T05:06:13.357Z,23.27
2018-10-11T05:08:41.888Z,24.40
2018-10-11T05:11:10.476Z,22.87
2018-10-11T05:13:44.391Z,22.93
2018-10-11T05:16:13.491Z,23.00
2018-10-11T05:18:43.666Z,23.23
2018-10-11T05:21:12.216Z,25.20
2018-10-11T05:23:41.431Z,23.60
2018-10-11T05:26:09.977Z,23.83
2018-10-11T05:28:38.338Z,23.40
2018-10-11T05:31:06.844Z,22.63
2018-10-11T05:33:36.617Z,22.70
2018-10-11T05:36:05.267Z,23.47
2018-10-11T05:38:33.660Z,25.90
2018-10-11T05:41:02.118Z,24.80
2018-10-11T05:43:30.720Z,24.03
2018-10-11T05:46:00.998Z,22.60
2018-10-11T05:48:31.107Z,22.53
2018-10-11T05:51:00.408Z,24.70
2018-10-11T05:53:29.146Z,23.63
2018-10-11T05:55:58.525Z,24.03
2018-10-11T05:58:27.622Z,23.50
2018-10-11T06:00:56.525Z,23.93
2018-10-11T06:03:25.094Z,23.77
2018-10-11T06:05:53.533Z,23.73
2018-10-11T06:08:22.013Z,24.73
2018-10-11T06:10:51.456Z,23.03
2018-10-11T06:13:20.103Z,23.97
2018-10-11T06:15:48.827Z,25.03
2018-10-11T06:18:17.285Z,26.03
2018-10-11T06:20:46.549Z,26.50
2018-10-11T06:23:14.979Z,26.83
2018-10-11T06:25:43.475Z,28.27
2018-10-11T06:28:11.921Z,27.67
2018-10-11T06:30:40.515Z,28.57
2018-10-11T06:33:08.973Z,26.20
2018-10-11T06:35:38.417Z,27.27
2018-10-11T06:38:07.101Z,25.30
2018-10-11T06:40:37.663Z,27.40
2018-10-11T06:43:06.606Z,25.47
2018-10-11T06:45:35.799Z,25.00
2018-10-11T06:48:06.783Z,24.97
2018-10-11T06:50:35.681Z,25.67
2018-10-11T06:53:04.571Z,26.30
2018-10-11T06:55:32.918Z,25.53
2018-10-11T06:58:01.386Z,23.83
2018-10-11T07:00:29.903Z,23.73
2018-10-11T07:02:58.321Z,23.13
2018-10-11T07:05:26.890Z,23.17
2018-10-11T07:07:55.361Z,23.83
2018-10-11T07:10:23.995Z,22.93
2018-10-11T07:12:52.415Z,22.37
2018-10-11T07:15:20.776Z,23.70
2018-10-11T07:17:49.246Z,23.30
2018-10-11T07:20:17.651Z,24.17
2018-10-11T07:22:46.133Z,24.20
2018-10-11T07:25:15.216Z,23.83
2018-10-11T07:27:43.702Z,24.50
2018-10-11T07:30:12.508Z,24.80
2018-10-11T07:32:40.951Z,24.23
2018-10-11T07:35:10.253Z,22.93
2018-10-11T07:37:38.719Z,26.27
2018-10-11T07:40:09.844Z,23.90
2018-10-11T07:42:38.808Z,24.73
2018-10-11T07:45:08.707Z,24.07
2018-10-11T07:47:37.491Z,23.50
2018-10-11T07:50:06.536Z,21.03
2018-10-11T07:52:35.182Z,23.10
2018-10-11T07:55:08.379Z,22.47
2018-10-11T07:57:36.844Z,21.43
2018-10-11T08:00:05.572Z,22.37
2018-10-11T08:02:33.920Z,22.17
2018-10-11T08:05:02.325Z,22.00
2018-10-11T08:07:30.830Z,21.40
2018-10-11T08:10:03.700Z,21.83
2018-10-11T08:12:32.125Z,22.40
2018-10-11T08:15:00.523Z,21.60
2018-10-11T08:17:29.446Z,21.70
2018-10-11T08:20:01.994Z,21.53
2018-10-11T08:22:30.282Z,21.53
2018-10-11T08:24:59.154Z,20.93
2018-10-11T08:27:27.671Z,19.10
2018-10-11T08:29:56.190Z,21.20
2018-10-11T08:32:24.712Z,20.70
2018-10-11T08:34:53.123Z,22.43
2018-10-11T08:37:21.575Z,21.57
2018-10-11T08:39:50.248Z,20.47
2018-10-11T08:42:18.592Z,19.93
2018-10-11T08:44:48.030Z,19.73
2018-10-11T08:47:16.674Z,19.73
2018-10-11T08:49:45.540Z,19.60
2018-10-11T08:52:14.872Z,19.40
2018-10-11T08:54:47.945Z,20.00
2018-10-11T08:57:16.652Z,20.50
2018-10-11T08:59:46.509Z,19.13
2018-10-11T09:02:15.033Z,20.80
2018-10-11T09:04:43.697Z,21.07
2018-10-11T09:07:12.353Z,20.93
2018-10-11T09:09:40.990Z,22.90
2018-10-11T09:12:09.386Z,20.13
2018-10-11T09:14:38.543Z,22.23
2018-10-11T09:17:06.934Z,22.17
2018-10-11T09:19:35.552Z,21.90
2018-10-11T09:22:03.929Z,21.93
2018-10-11T09:24:32.283Z,20.40
2018-10-11T09:27:00.715Z,21.57
2018-10-11T09:29:29.134Z,21.00
2018-10-11T09:31:57.478Z,21.80
2018-10-11T09:34:25.917Z,21.37
2018-10-11T09:36:54.259Z,21.60
2018-10-11T09:39:22.679Z,22.83
2018-10-11T09:41:51.027Z,20.07
2018-10-11T09:44:19.490Z,22.30
2018-10-11T09:46:49.171Z,22.07
2018-10-11T09:49:17.520Z,23.27
2018-10-11T09:51:46.203Z,23.67
2018-10-11T09:54:14.815Z,24.90
2018-10-11T09:57:18.342Z,23.73
2018-10-11T09:59:46.806Z,22.77
2018-10-11T10:02:15.606Z,22.20
2018-10-11T10:04:46.051Z,23.57
2018-10-11T10:07:14.515Z,23.53
2018-10-11T10:09:43.750Z,22.43
2018-10-11T10:12:12.694Z,23.40
2018-10-11T10:14:41.909Z,22.60
2018-10-11T10:17:10.658Z,23.70
2018-10-11T10:19:39.043Z,23.03
2018-10-11T10:22:07.548Z,23.30
2018-10-11T10:24:36.471Z,22.10
2018-10-11T10:27:04.410Z,23.30
2018-10-11T10:29:32.772Z,26.40
2018-10-11T10:32:01.889Z,25.17
2018-10-11T10:34:30.262Z,24.00
2018-10-11T10:36:58.744Z,21.97
2018-10-11T10:39:27.097Z,23.20
2018-10-11T10:41:55.524Z,23.63
2018-10-11T10:44:23.915Z,22.30
2018-10-11T10:46:52.579Z,24.30
2018-10-11T10:49:21.252Z,24.07
2018-10-11T10:51:49.739Z,23.20
2018-10-11T10:54:22.999Z,24.40
2018-10-11T10:56:52.085Z,23.83
2018-10-11T10:59:20.540Z,22.00
2018-10-11T11:01:48.911Z,23.73
2018-10-11T11:04:17.350Z,23.63
2018-10-11T11:06:45.905Z,22.10
2018-10-11T11:09:14.918Z,21.27
2018-10-11T11:11:43.677Z,23.90
2018-10-11T11:14:13.250Z,22.40
2018-10-11T11:16:42.068Z,24.27
2018-10-11T11:19:11.052Z,23.70
2018-10-11T11:21:39.625Z,22.80
2018-10-11T11:24:08.157Z,23.97
2018-10-11T11:26:36.514Z,23.93
2018-10-11T11:29:04.994Z,22.83
2018-10-11T11:31:33.433Z,23.67
2018-10-11T11:34:02.357Z,22.70
2018-10-11T11:36:31.407Z,20.57
2018-10-11T11:38:59.794Z,22.67
2018-10-11T11:41:28.139Z,21.83
2018-10-11T11:43:56.691Z,20.67
2018-10-11T11:46:25.122Z,21.37
2018-10-11T11:48:53.500Z,23.40
2018-10-11T11:51:21.914Z,22.63
2018-10-11T11:53:50.332Z,20.43
2018-10-11T11:56:19.005Z,23.50
2018-10-11T11:58:47.478Z,19.70
2018-10-11T12:01:15.925Z,22.00
2018-10-11T12:03:44.278Z,21.30
2018-10-11T12:06:12.667Z,20.83
2018-10-11T12:08:41.584Z,23.20
2018-10-11T12:11:09.965Z,21.20
2018-10-11T12:13:38.294Z,23.70
2018-10-11T12:16:06.852Z,20.67
2018-10-11T12:18:35.351Z,20.80
2018-10-11T12:21:03.816Z,21.90
2018-10-11T12:23:32.155Z,20.87
2018-10-11T12:26:00.584Z,22.00
2018-10-11T12:28:29.026Z,23.30
2018-10-11T12:30:57.296Z,21.37
2018-10-11T12:33:25.669Z,20.83
2018-10-11T12:35:54.121Z,20.63
2018-10-11T12:38:22.482Z,21.83
2018-10-11T12:40:50.905Z,21.60
2018-10-11T12:43:19.261Z,18.70
2018-10-11T12:45:47.662Z,20.40
2018-10-11T12:48:16.040Z,19.20
2018-10-11T12:50:44.428Z,20.10
2018-10-11T12:53:12.844Z,20.60
2018-10-11T12:55:41.228Z,20.30
2018-10-11T12:58:09.591Z,20.03
2018-10-11T13:00:37.931Z,19.83
2018-10-11T13:03:06.374Z,18.83
2018-10-11T13:05:34.720Z,20.73
2018-10-11T13:08:03.102Z,18.63
2018-10-11T13:10:31.463Z,19.83
2018-10-11T13:13:01.476Z,19.27
2018-10-11T13:15:28.234Z,19.23
2018-10-11T13:17:56.591Z,17.87
2018-10-11T13:20:25.077Z,18.33
2018-10-11T13:22:53.527Z,18.13
2018-10-11T13:25:21.835Z,18.50
2018-10-11T13:27:50.244Z,19.80
2018-10-11T13:30:18.683Z,18.50
2018-10-11T13:32:47.064Z,18.83
2018-10-11T13:35:15.475Z,20.67
2018-10-11T13:37:43.875Z,17.00
2018-10-11T13:40:12.292Z,18.10
2018-10-11T13:42:40.666Z,19.40
2018-10-11T13:45:09.059Z,19.40
2018-10-11T13:47:42.329Z,17.03
2018-10-11T13:50:06.078Z,17.03
2018-10-11T13:52:34.458Z,17.30
2018-10-11T13:55:09.647Z,18.90
2018-10-11T13:57:31.469Z,17.67
2018-10-11T13:59:59.700Z,17.80
2018-10-11T14:02:28.037Z,17.83
2018-10-11T14:04:56.385Z,18.30
2018-10-11T14:07:25.070Z,18.03
2018-10-11T14:09:53.414Z,16.60
2018-10-11T14:12:21.796Z,18.20
2018-10-11T14:14:50.132Z,17.43
2018-10-11T14:17:18.551Z,19.10
2018-10-11T14:19:46.943Z,17.47
2018-10-11T14:22:15.366Z,19.00
2018-10-11T14:24:43.766Z,17.53
2018-10-11T14:27:12.178Z,16.70
2018-10-11T14:29:40.589Z,17.90
2018-10-11T14:32:08.953Z,16.17
2018-10-11T14:34:37.642Z,16.50
2018-10-11T14:37:06.196Z,15.60
2018-10-11T14:39:34.466Z,17.13
2018-10-11T14:42:02.920Z,17.70
2018-10-11T14:44:31.302Z,17.07
2018-10-11T14:46:59.687Z,16.17
2018-10-11T14:49:28.143Z,15.40
2018-10-11T14:51:56.510Z,16.17
2018-10-11T14:54:24.916Z,16.27
2018-10-11T14:56:53.265Z,15.93
2018-10-11T14:59:21.686Z,15.00
2018-10-11T15:01:50.002Z,14.87
2018-10-11T15:04:18.405Z,14.63
2018-10-11T15:06:46.770Z,15.33
2018-10-11T15:09:15.326Z,14.20
2018-10-11T15:11:43.795Z,14.43
2018-10-11T15:14:12.134Z,15.47
2018-10-11T15:16:40.572Z,14.80
2018-10-11T15:19:08.989Z,14.97
2018-10-11T15:21:37.386Z,14.20
2018-10-11T15:24:06.233Z,14.40
2018-10-11T15:26:34.760Z,13.93
2018-10-11T15:29:03.257Z,14.57
2018-10-11T15:31:31.971Z,13.60
2018-10-11T15:34:00.357Z,14.20
2018-10-11T15:36:28.845Z,13.47
2018-10-11T15:38:57.228Z,14.53
2018-10-11T15:41:25.602Z,13.90
2018-10-11T15:43:54.039Z,14.80
2018-10-11T15:46:22.439Z,14.17
2018-10-11T15:48:50.825Z,14.40
2018-10-11T15:51:19.277Z,14.73
2018-10-11T15:53:47.675Z,16.40
2018-10-11T15:56:16.074Z,14.20
2018-10-11T15:58:44.452Z,13.70
2018-10-11T16:01:12.912Z,14.57
2018-10-11T16:03:41.364Z,14.47
2018-10-11T16:06:09.920Z,14.83
2018-10-11T16:08:38.252Z,16.33
2018-10-11T16:11:06.654Z,13.13
2018-10-11T16:13:35.086Z,16.10
2018-10-11T16:16:03.495Z,16.07
2018-10-11T16:18:31.987Z,14.10
2018-10-11T16:21:00.496Z,15.20
2018-10-11T16:23:29.153Z,15.30
2018-10-11T16:25:57.988Z,15.37
2018-10-11T16:28:26.520Z,13.80
2018-10-11T16:30:55.148Z,14.90
2018-10-11T16:33:23.754Z,16.03
2018-10-11T16:35:52.499Z,15.43
2018-10-11T16:38:20.914Z,15.13
2018-10-11T16:40:49.463Z,17.30
2018-10-11T16:43:18.395Z,15.73
2018-10-11T16:45:47.310Z,16.03
2018-10-11T16:48:16.803Z,15.90
2018-10-11T16:50:45.506Z,15.23
2018-10-11T16:53:14.252Z,17.10
2018-10-11T16:55:42.945Z,15.27
2018-10-11T16:58:12.254Z,15.73
2018-10-11T17:00:41.374Z,14.70
2018-10-11T17:03:10.457Z,17.50
2018-10-11T17:05:39.497Z,14.47
2018-10-11T17:08:08.742Z,20.00
2018-10-11T17:10:38.015Z,14.33
2018-10-11T17:13:07.078Z,14.73
2018-10-11T17:15:36.127Z,18.20
2018-10-11T17:18:04.774Z,16.20
2018-10-11T17:20:33.564Z,21.10
2018-10-11T17:23:02.159Z,16.73
2018-10-11T17:25:31.572Z,16.10
2018-10-11T17:28:00.296Z,15.30
2018-10-11T17:30:28.978Z,16.43
2018-10-11T17:32:57.543Z,16.87
2018-10-11T17:35:26.740Z,16.83
2018-10-11T17:37:55.191Z,17.40
2018-10-11T17:40:23.737Z,17.93
2018-10-11T17:42:52.196Z,16.67
2018-10-11T17:45:20.603Z,15.87
2018-10-11T17:47:50.002Z,16.20
2018-10-11T17:50:19.305Z,15.83
2018-10-11T17:52:48.706Z,16.40
2018-10-11T17:55:18.316Z,15.73
2018-10-11T17:57:47.414Z,16.10
2018-10-11T18:00:16.116Z,17.03
2018-10-11T18:02:44.700Z,17.37
2018-10-11T18:05:13.285Z,16.90
2018-10-11T18:07:42.067Z,17.70
2018-10-11T18:10:10.769Z,16.70
2018-10-11T18:12:39.542Z,16.87
2018-10-11T18:15:08.599Z,16.70
2018-10-11T18:17:37.856Z,17.83
2018-10-11T18:20:06.597Z,19.03
2018-10-11T18:22:35.185Z,18.37
2018-10-11T18:25:03.941Z,19.90
2018-10-11T18:27:36.645Z,18.13
2018-10-11T18:30:05.602Z,19.00
2018-10-11T18:32:34.225Z,19.23
2018-10-11T18:35:02.836Z,19.70
2018-10-11T18:37:32.024Z,18.20
2018-10-11T18:40:00.746Z,19.20
2018-10-11T18:42:29.325Z,20.63
2018-10-11T18:44:57.991Z,20.93
2018-10-11T18:47:26.508Z,20.53
2018-10-11T18:49:55.217Z,21.67
2018-10-11T18:52:23.779Z,20.03
2018-10-11T18:54:52.546Z,21.70
2018-10-11T18:57:21.298Z,20.67
2018-10-11T18:59:49.917Z,22.73
2018-10-11T19:02:18.499Z,22.07
2018-10-11T19:04:47.038Z,20.67
2018-10-11T19:07:15.704Z,21.20
2018-10-11T19:09:44.334Z,21.70
2018-10-11T19:12:12.982Z,21.13
2018-10-11T19:14:41.572Z,22.20
2018-10-11T19:17:10.133Z,21.33
2018-10-11T19:19:38.624Z,20.63
2018-10-11T19:22:07.343Z,19.93
2018-10-11T19:24:36.124Z,20.43
2018-10-11T19:27:04.742Z,29.27
2018-10-11T19:29:33.452Z,22.90
2018-10-11T19:32:02.061Z,22.27
2018-10-11T19:34:30.611Z,21.73
2018-10-11T19:36:59.156Z,20.63
2018-10-11T19:39:27.721Z,20.50
2018-10-11T19:41:56.294Z,22.47
2018-10-11T19:44:24.826Z,21.07
2018-10-11T19:46:53.489Z,22.27
2018-10-11T19:49:22.001Z,22.07
2018-10-11T19:51:50.578Z,22.23
2018-10-11T19:54:19.064Z,21.77
2018-10-11T19:56:47.526Z,22.63
2018-10-11T19:59:16.061Z,23.10
2018-10-11T20:01:44.926Z,21.53
2018-10-11T20:04:13.694Z,23.53
2018-10-11T20:06:42.186Z,23.77
2018-10-11T20:09:10.668Z,23.93
2018-10-11T20:11:39.135Z,22.07
2018-10-11T20:14:07.575Z,21.93
2018-10-11T20:16:36.042Z,21.83
2018-10-11T20:19:04.575Z,21.90
2018-10-11T20:21:33.083Z,22.37
2018-10-11T20:24:01.591Z,22.40
2018-10-11T20:26:30.464Z,22.47
2018-10-11T20:28:59.254Z,23.07
2018-10-11T20:31:27.880Z,22.50
2018-10-11T20:33:56.552Z,22.20
2018-10-11T20:36:25.847Z,24.20
2018-10-11T20:38:54.646Z,23.53
2018-10-11T20:41:23.232Z,23.63
2018-10-11T20:43:51.857Z,22.60
2018-10-11T20:46:20.604Z,25.30
2018-10-11T20:48:49.163Z,23.00
2018-10-11T20:51:17.664Z,24.30
2018-10-11T20:53:46.165Z,23.53
2018-10-11T20:56:14.723Z,25.67
2018-10-11T20:58:43.144Z,24.17
2018-10-11T21:01:11.636Z,23.13
2018-10-11T21:03:40.163Z,23.00
2018-10-11T21:06:08.594Z,23.17
2018-10-11T21:08:37.594Z,24.03
2018-10-11T21:11:06.101Z,22.67
2018-10-11T21:13:34.607Z,22.50
2018-10-11T21:16:03.342Z,21.97
2018-10-11T21:18:31.888Z,22.83
2018-10-11T21:21:00.699Z,22.47
2018-10-11T21:23:29.313Z,20.67
2018-10-11T21:25:57.968Z,22.87
2018-10-11T21:28:26.602Z,22.30
2018-10-11T21:30:55.142Z,22.23
2018-10-11T21:33:23.824Z,23.20
2018-10-11T21:35:52.477Z,22.20
2018-10-11T21:38:21.501Z,21.10
2018-10-11T21:40:49.970Z,22.40
2018-10-11T21:43:19.237Z,23.60
2018-10-11T21:45:47.566Z,22.87
2018-10-11T21:48:16.222Z,22.70
2018-10-11T21:50:44.602Z,24.50
2018-10-11T21:53:13.019Z,21.60
2018-10-11T21:55:41.828Z,25.40
2018-10-11T21:58:10.218Z,22.30
2018-10-11T22:00:44.060Z,22.67
2018-10-11T22:03:12.443Z,24.30
2018-10-11T22:05:41.081Z,25.57
2018-10-11T22:08:09.839Z,23.13
2018-10-11T22:10:38.962Z,25.07
2018-10-11T22:13:07.672Z,23.00
2018-10-11T22:15:36.844Z,23.90
2018-10-11T22:18:05.247Z,23.80
2018-10-11T22:20:33.640Z,24.17
2018-10-11T22:23:02.637Z,25.07
2018-10-11T22:25:31.032Z,23.03
2018-10-11T22:27:59.635Z,25.13
2018-10-11T22:30:28.026Z,23.77
2018-10-11T22:32:56.520Z,25.20
2018-10-11T22:35:25.089Z,25.70
2018-10-11T22:37:59.124Z,25.57
2018-10-11T22:40:27.686Z,25.70
2018-10-11T22:42:56.663Z,24.80
2018-10-11T22:45:25.847Z,25.97
2018-10-11T22:47:54.967Z,23.00
2018-10-11T22:50:24.131Z,26.87
2018-10-11T22:52:52.553Z,25.13
2018-10-11T22:55:20.950Z,24.33
2018-10-11T22:57:49.662Z,24.60
2018-10-11T23:00:18.383Z,24.47
2018-10-11T23:02:47.181Z,25.20
2018-10-11T23:05:15.612Z,25.77
2018-10-11T23:07:44.010Z,25.47
2018-10-11T23:10:12.369Z,24.63
2018-10-11T23:12:40.892Z,25.77
2018-10-11T23:15:09.341Z,26.00
2018-10-11T23:17:38.614Z,24.80
2018-10-11T23:20:07.295Z,24.07
2018-10-11T23:22:35.744Z,25.73
2018-10-11T23:25:04.163Z,26.17
2018-10-11T23:27:32.487Z,24.53
2018-10-11T23:30:00.887Z,23.97
2018-10-11T23:32:29.282Z,27.13
2018-10-11T23:34:57.723Z,25.47
2018-10-11T23:37:26.153Z,24.43
2018-10-11T23:39:54.682Z,25.67
2018-10-11T23:42:23.088Z,23.70
2018-10-11T23:44:52.279Z,25.40
2018-10-11T23:47:21.621Z,25.40
2018-10-11T23:49:49.990Z,25.80
2018-10-11T23:52:18.346Z,24.93
2018-10-11T23:54:47.025Z,25.20
2018-10-11T23:57:15.408Z,27.07
2018-10-11T23:59:43.758Z,25.00
